Waialua, Hawaii
Current Conditions -  °F | °C
As of 9:58 PM on Thursday 18 Dec 2014 (Local Time) from PHHI Reporting Station
Scattered Clouds Scattered Clouds  
Wind Chill: 21°   Ceiling: Unl
Heat Index: 21°   Visibility: 10mi
Dew Point: 18°   Wind: 2mph
Humidity: 83%   Direction: 70°ENE
Pressure: 30.15"   Gusts: NA
Location:  21.57°N, 158.12°W
Report Text: PHHI 190758Z AUTO 07002KT 10SM SCT029 21/18 A3015 RMK AO2 SLP202 T02130184 $
Loading
Personal Weather Stations






























Interactive Weather Map New forecast layout! Learn more

10-Day Weather Forecast

Advertisements
Track Severe Weather on mobile